Time;durP1;ratioP1;P1;durP2;ratioP2;P2;SDS_P1;SDS_P2;PMS_P1;PMS_P2;Temp;Humidity;BMP_temperature;BMP_pressure;BME280_temperature;BME280_humidity;BME280_pressure;Samples;Min_cycle;Max_cycle;Signal;HPM_P1;HPM_P2
2023/12/20 00:00:56;;;;;;;19.73;2.85;;;;;;;;;;5013466;28;20013;-73
2023/12/20 00:03:21;;;;;;;13.10;2.47;;;;;;;;;;5015277;28;20075;-73
2023/12/20 00:05:47;;;;;;;23.48;3.45;;;;;;;;;;5016895;28;20057;-74
2023/12/20 00:08:12;;;;;;;13.48;2.65;;;;;;;;;;5016891;28;20021;-74
2023/12/20 00:10:37;;;;;;;16.33;2.83;;;;;;;;;;5015439;28;20172;-73
2023/12/20 00:13:02;;;;;;;22.63;2.87;;;;;;;;;;5017069;28;20022;-73
2023/12/20 00:15:28;;;;;;;20.80;3.78;;;;;;;;;;5016363;28;20265;-73
2023/12/20 00:17:53;;;;;;;17.50;3.00;;;;;;;;;;5016111;28;20061;-75
2023/12/20 00:20:18;;;;;;;17.48;2.90;;;;;;;;;;5016804;28;20438;-74
2023/12/20 00:22:43;;;;;;;14.82;2.38;;;;;;;;;;5016972;28;20513;-72
2023/12/20 00:25:09;;;;;;;16.52;3.45;;;;;;;;;;5016317;28;20018;-72
2023/12/20 00:27:34;;;;;;;14.75;3.05;;;;;;;;;;5016346;28;20108;-73
2023/12/20 00:29:59;;;;;;;26.00;3.58;;;;;;;;;;5016373;28;20017;-73
2023/12/20 00:32:25;;;;;;;13.95;2.97;;;;;;;;;;5016370;28;20010;-73
2023/12/20 00:34:50;;;;;;;17.00;2.73;;;;;;;;;;5015947;28;20484;-73
2023/12/20 00:37:16;;;;;;;15.05;2.35;;;;;;;;;;5016029;28;20286;-73
2023/12/20 00:39:41;;;;;;;24.90;4.03;;;;;;;;;;5015863;28;20482;-73
2023/12/20 00:42:07;;;;;;;20.50;3.10;;;;;;;;;;5016285;28;20018;-73
2023/12/20 00:44:32;;;;;;;20.23;3.53;;;;;;;;;;5014845;28;20036;-72
2023/12/20 00:46:57;;;;;;;21.92;3.35;;;;;;;;;;5015931;28;20080;-75
2023/12/20 00:49:22;;;;;;;15.82;3.00;;;;;;;;;;5015757;28;20020;-73
2023/12/20 00:51:50;;;;;;;16.80;2.47;;;;;;;;;;5016273;28;20026;-72
2023/12/20 00:54:15;;;;;;;23.80;3.58;;;;;;;;;;5016406;28;20065;-72
2023/12/20 00:56:40;;;;;;;19.85;2.90;;;;;;;;;;5016086;28;20084;-73
2023/12/20 00:59:05;;;;;;;18.58;3.00;;;;;;;;;;5015699;28;20030;-73
2023/12/20 01:01:32;;;;;;;20.70;3.27;;;;;;;;;;5016097;28;20018;-73
2023/12/20 01:03:58;;;;;;;22.58;2.83;;;;;;;;;;5015673;28;20355;-77
2023/12/20 01:06:23;;;;;;;18.58;3.03;;;;;;;;;;5016380;28;20045;-72
2023/12/20 01:08:48;;;;;;;23.77;3.55;;;;;;;;;;5015384;28;20021;-73
2023/12/20 01:11:13;;;;;;;18.35;2.75;;;;;;;;;;5015549;28;20105;-73
2023/12/20 01:13:39;;;;;;;21.63;2.73;;;;;;;;;;5015239;28;20017;-72
2023/12/20 01:16:04;;;;;;;19.20;3.83;;;;;;;;;;5014972;28;20258;-73
2023/12/20 01:18:29;;;;;;;21.98;3.03;;;;;;;;;;5015896;28;20597;-73
2023/12/20 01:20:55;;;;;;;18.77;3.28;;;;;;;;;;5015295;28;20045;-74
2023/12/20 01:23:20;;;;;;;23.27;3.50;;;;;;;;;;5015762;28;20028;-73
2023/12/20 01:25:46;;;;;;;27.95;3.15;;;;;;;;;;5015352;28;20025;-72
2023/12/20 01:28:11;;;;;;;26.27;3.22;;;;;;;;;;5014954;28;20105;-72
2023/12/20 01:30:37;;;;;;;15.63;2.65;;;;;;;;;;5015219;28;20025;-72
2023/12/20 01:33:03;;;;;;;21.17;4.18;;;;;;;;;;5015151;28;20101;-74
2023/12/20 01:35:28;;;;;;;32.80;3.33;;;;;;;;;;5015094;28;20109;-73
2023/12/20 01:37:56;;;;;;;27.45;4.47;;;;;;;;;;5015037;28;20443;-73
2023/12/20 01:40:21;;;;;;;24.33;3.13;;;;;;;;;;5013487;28;20557;-73
2023/12/20 01:42:47;;;;;;;32.15;3.03;;;;;;;;;;5015120;28;20056;-73
2023/12/20 01:45:12;;;;;;;31.90;4.13;;;;;;;;;;5014565;28;20028;-73
2023/12/20 01:47:37;;;;;;;17.13;3.20;;;;;;;;;;5015115;28;20030;-73
2023/12/20 01:50:03;;;;;;;19.67;3.88;;;;;;;;;;5014826;28;20292;-73
2023/12/20 01:52:29;;;;;;;19.40;3.58;;;;;;;;;;5015300;28;20022;-73
2023/12/20 01:55:00;;;;;;;12.45;2.90;;;;;;;;;;5014855;28;20018;-73
2023/12/20 01:57:26;;;;;;;20.38;2.90;;;;;;;;;;5014880;28;20407;-72
2023/12/20 01:59:51;;;;;;;23.20;3.83;;;;;;;;;;5014712;28;20025;-72
2023/12/20 02:02:16;;;;;;;20.00;3.95;;;;;;;;;;5013863;28;20013;-73
2023/12/20 02:04:43;;;;;;;14.23;2.80;;;;;;;;;;5014967;28;20029;-73
2023/12/20 02:07:08;;;;;;;25.23;3.65;;;;;;;;;;5014445;28;20034;-73
2023/12/20 02:09:33;;;;;;;17.65;2.88;;;;;;;;;;5013222;28;20075;-72
2023/12/20 02:11:59;;;;;;;23.60;3.67;;;;;;;;;;5013286;28;20439;-73
2023/12/20 02:14:24;;;;;;;15.63;2.73;;;;;;;;;;5014654;28;20079;-73
2023/12/20 02:16:49;;;;;;;24.45;3.50;;;;;;;;;;5014259;28;20288;-72
2023/12/20 02:19:15;;;;;;;23.55;3.45;;;;;;;;;;5014851;28;20021;-72
2023/12/20 02:21:40;;;;;;;22.30;2.75;;;;;;;;;;5014318;28;20016;-72
2023/12/20 02:24:05;;;;;;;19.37;3.47;;;;;;;;;;5014375;28;20512;-74
2023/12/20 02:26:32;;;;;;;25.50;3.65;;;;;;;;;;5014032;28;20265;-72
2023/12/20 02:28:57;;;;;;;18.73;3.60;;;;;;;;;;5013795;28;20339;-73
2023/12/20 02:31:23;;;;;;;18.30;2.88;;;;;;;;;;5013833;28;20167;-73
2023/12/20 02:33:48;;;;;;;19.60;3.03;;;;;;;;;;5014163;28;20025;-73
2023/12/20 02:36:13;;;;;;;14.20;2.67;;;;;;;;;;5012977;28;20052;-73
2023/12/20 02:38:38;;;;;;;17.17;3.13;;;;;;;;;;5013936;28;20358;-73
2023/12/20 02:41:04;;;;;;;22.27;2.97;;;;;;;;;;5012170;28;20474;-73
2023/12/20 02:43:29;;;;;;;13.68;2.70;;;;;;;;;;5013841;28;20294;-73
2023/12/20 02:45:54;;;;;;;16.45;3.15;;;;;;;;;;5014431;28;20025;-73
2023/12/20 02:48:19;;;;;;;17.40;3.47;;;;;;;;;;5014316;28;20033;-73
2023/12/20 02:50:45;;;;;;;24.58;3.45;;;;;;;;;;5014289;28;20260;-72
2023/12/20 02:53:11;;;;;;;18.65;3.53;;;;;;;;;;5013797;28;20481;-72
2023/12/20 02:55:36;;;;;;;18.57;3.50;;;;;;;;;;5013451;28;20053;-72
2023/12/20 02:58:01;;;;;;;27.33;3.90;;;;;;;;;;5013679;28;20295;-73
2023/12/20 03:00:26;;;;;;;20.43;3.93;;;;;;;;;;5013672;28;20447;-73
2023/12/20 03:02:51;;;;;;;27.42;3.88;;;;;;;;;;5013555;28;20303;-73
2023/12/20 03:05:17;;;;;;;22.37;3.03;;;;;;;;;;5013505;28;20450;-74
2023/12/20 03:07:42;;;;;;;22.92;3.42;;;;;;;;;;5013317;28;20319;-73
2023/12/20 03:10:08;;;;;;;16.13;3.15;;;;;;;;;;5012613;28;20025;-73
2023/12/20 03:12:33;;;;;;;21.52;3.53;;;;;;;;;;5013436;28;20056;-73
2023/12/20 03:14:59;;;;;;;31.05;3.88;;;;;;;;;;5013458;28;20022;-73
2023/12/20 03:17:24;;;;;;;16.08;3.42;;;;;;;;;;5013408;28;20119;-73
2023/12/20 03:19:49;;;;;;;19.40;2.80;;;;;;;;;;5013415;28;20029;-73
2023/12/20 03:22:14;;;;;;;27.97;3.07;;;;;;;;;;5012541;28;20264;-73
2023/12/20 03:24:40;;;;;;;19.90;4.65;;;;;;;;;;5013066;28;20244;-72
2023/12/20 03:27:05;;;;;;;17.80;3.13;;;;;;;;;;4995726;28;20022;-72
2023/12/20 03:29:30;;;;;;;13.77;3.28;;;;;;;;;;5013071;28;20026;-72
2023/12/20 03:31:55;;;;;;;15.93;2.57;;;;;;;;;;5013240;28;20018;-73
2023/12/20 03:34:21;;;;;;;24.13;3.40;;;;;;;;;;5012282;28;20269;-73
2023/12/20 03:36:47;;;;;;;28.17;3.83;;;;;;;;;;5014402;28;20261;-80
2023/12/20 03:39:12;;;;;;;22.63;3.28;;;;;;;;;;5018444;28;20045;-79
2023/12/20 03:41:38;;;;;;;20.08;3.08;;;;;;;;;;5018950;28;20022;-83
2023/12/20 03:44:03;;;;;;;29.48;3.50;;;;;;;;;;5018393;28;20328;-89
2023/12/20 03:46:28;;;;;;;16.85;2.75;;;;;;;;;;5027264;28;20037;-84
2023/12/20 03:48:53;;;;;;;20.23;3.70;;;;;;;;;;5032393;28;20085;-80
2023/12/20 03:51:19;;;;;;;23.20;3.75;;;;;;;;;;5028390;28;20288;-78
2023/12/20 03:53:44;;;;;;;21.10;3.35;;;;;;;;;;5028376;28;20125;-81
2023/12/20 03:56:09;;;;;;;27.30;3.00;;;;;;;;;;5025371;28;20041;-84
2023/12/20 03:58:34;;;;;;;26.23;3.92;;;;;;;;;;5016908;28;20284;-83
2023/12/20 04:01:00;;;;;;;19.10;3.80;;;;;;;;;;5015855;28;20025;-84
2023/12/20 04:03:25;;;;;;;22.38;3.33;;;;;;;;;;5016059;28;20021;-84
2023/12/20 04:05:50;;;;;;;31.83;5.15;;;;;;;;;;5016340;28;20062;-82
2023/12/20 04:08:15;;;;;;;30.07;4.47;;;;;;;;;;5016431;28;20026;-82
2023/12/20 04:10:41;;;;;;;18.17;3.00;;;;;;;;;;5016395;28;20257;-80
2023/12/20 04:13:06;;;;;;;19.50;3.40;;;;;;;;;;5015999;28;20429;-82
2023/12/20 04:15:31;;;;;;;19.73;3.17;;;;;;;;;;5015689;28;20317;-81
2023/12/20 04:17:56;;;;;;;22.88;3.45;;;;;;;;;;5016159;28;20284;-81
2023/12/20 04:20:21;;;;;;;17.48;3.55;;;;;;;;;;5015915;28;20072;-87
2023/12/20 04:22:47;;;;;;;17.98;3.25;;;;;;;;;;5015764;28;20014;-87
2023/12/20 04:25:12;;;;;;;19.52;3.88;;;;;;;;;;5015768;28;20026;-80
2023/12/20 04:27:37;;;;;;;29.38;3.75;;;;;;;;;;5015597;28;20374;-84
2023/12/20 04:30:03;;;;;;;12.50;2.90;;;;;;;;;;5014668;28;20022;-85
2023/12/20 04:32:29;;;;;;;19.13;3.30;;;;;;;;;;5015437;28;20756;-80
2023/12/20 04:34:54;;;;;;;20.38;3.55;;;;;;;;;;5015342;28;20021;-84
2023/12/20 04:37:19;;;;;;;20.83;3.33;;;;;;;;;;5015463;28;20032;-81
2023/12/20 04:39:44;;;;;;;28.92;3.35;;;;;;;;;;5015365;28;20296;-84
2023/12/20 04:42:10;;;;;;;18.90;3.47;;;;;;;;;;5015390;28;20022;-81
2023/12/20 04:44:35;;;;;;;18.60;3.22;;;;;;;;;;5015059;28;20025;-81
2023/12/20 04:47:01;;;;;;;15.30;2.83;;;;;;;;;;5014886;28;20014;-81
2023/12/20 04:49:26;;;;;;;22.83;4.68;;;;;;;;;;5012646;28;20053;-78
2023/12/20 04:51:51;;;;;;;27.05;4.38;;;;;;;;;;5015211;28;20037;-84
2023/12/20 04:54:16;;;;;;;19.80;3.33;;;;;;;;;;5015180;28;20017;-85
2023/12/20 04:56:42;;;;;;;23.90;3.30;;;;;;;;;;5014730;28;20022;-83
2023/12/20 04:59:07;;;;;;;21.58;3.90;;;;;;;;;;5015014;28;20138;-81
2023/12/20 05:01:32;;;;;;;25.33;3.22;;;;;;;;;;5015005;28;20018;-80
2023/12/20 05:03:57;;;;;;;23.70;2.60;;;;;;;;;;5014908;28;20053;-80
2023/12/20 05:06:23;;;;;;;22.63;3.45;;;;;;;;;;5015458;28;20022;-85
2023/12/20 05:08:48;;;;;;;28.58;3.78;;;;;;;;;;5014550;28;20025;-80
2023/12/20 05:11:15;;;;;;;25.33;3.05;;;;;;;;;;5014907;28;20013;-82
2023/12/20 05:13:40;;;;;;;19.27;3.63;;;;;;;;;;5014572;28;20026;-85
2023/12/20 05:16:05;;;;;;;19.00;3.53;;;;;;;;;;5014909;28;20469;-82
2023/12/20 05:18:30;;;;;;;15.30;3.10;;;;;;;;;;5014742;28;20034;-84
2023/12/20 05:20:56;;;;;;;19.70;3.50;;;;;;;;;;5014948;28;20018;-85
2023/12/20 05:23:21;;;;;;;18.38;3.50;;;;;;;;;;5014303;28;20112;-81
2023/12/20 05:25:46;;;;;;;23.50;3.63;;;;;;;;;;5014606;28;20025;-80
2023/12/20 05:28:11;;;;;;;17.20;3.20;;;;;;;;;;5014797;28;20026;-84
2023/12/20 05:30:37;;;;;;;17.30;3.07;;;;;;;;;;5014642;28;20040;-87
2023/12/20 05:33:02;;;;;;;16.05;2.78;;;;;;;;;;5014687;28;20697;-80
2023/12/20 05:35:27;;;;;;;11.10;2.85;;;;;;;;;;5014540;28;20089;-82
2023/12/20 05:37:52;;;;;;;26.50;4.33;;;;;;;;;;5014335;28;20374;-80
2023/12/20 05:40:17;;;;;;;18.55;2.88;;;;;;;;;;5014340;28;20289;-86
2023/12/20 05:42:43;;;;;;;20.70;3.40;;;;;;;;;;5014832;28;20018;-82
2023/12/20 05:45:09;;;;;;;17.35;2.63;;;;;;;;;;5015180;28;20025;-82
2023/12/20 05:47:34;;;;;;;28.73;3.42;;;;;;;;;;5015389;28;20041;-81
2023/12/20 05:49:59;;;;;;;24.20;3.60;;;;;;;;;;5014662;28;20426;-82
2023/12/20 05:52:24;;;;;;;24.50;3.43;;;;;;;;;;5014267;28;20765;-83
2023/12/20 05:54:49;;;;;;;25.05;3.58;;;;;;;;;;5014422;28;20271;-86
2023/12/20 05:57:15;;;;;;;21.50;3.75;;;;;;;;;;5012573;28;20133;-84
2023/12/20 05:59:40;;;;;;;17.70;2.77;;;;;;;;;;5014218;28;20083;-81
2023/12/20 06:02:05;;;;;;;17.92;3.95;;;;;;;;;;5013194;28;20315;-80
2023/12/20 06:04:31;;;;;;;26.15;3.30;;;;;;;;;;5014144;28;20018;-80
2023/12/20 06:06:56;;;;;;;17.27;3.25;;;;;;;;;;5013912;28;20100;-85
2023/12/20 06:09:21;;;;;;;27.98;3.83;;;;;;;;;;5013157;28;20029;-87
2023/12/20 06:11:47;;;;;;;22.33;4.00;;;;;;;;;;5013641;28;20018;-85
2023/12/20 06:14:12;;;;;;;25.52;3.88;;;;;;;;;;5013233;28;20470;-81
2023/12/20 06:16:37;;;;;;;27.63;3.45;;;;;;;;;;5013594;28;20100;-77
2023/12/20 06:19:02;;;;;;;30.48;3.63;;;;;;;;;;5014047;28;20061;-88
2023/12/20 06:21:28;;;;;;;22.75;3.85;;;;;;;;;;5013676;28;20386;-83
2023/12/20 06:23:53;;;;;;;21.20;3.85;;;;;;;;;;5013449;28;20049;-83
2023/12/20 06:26:18;;;;;;;36.47;4.30;;;;;;;;;;5013391;28;20022;-81
2023/12/20 06:28:44;;;;;;;18.88;3.22;;;;;;;;;;5013060;28;20036;-83
2023/12/20 06:31:09;;;;;;;22.45;3.28;;;;;;;;;;5013339;28;20029;-83
2023/12/20 06:33:34;;;;;;;26.08;3.28;;;;;;;;;;5012954;28;20476;-82
2023/12/20 06:35:59;;;;;;;29.67;5.07;;;;;;;;;;5013462;28;20093;-80
2023/12/20 06:38:25;;;;;;;22.73;3.90;;;;;;;;;;5013097;28;20034;-84
2023/12/20 06:40:51;;;;;;;26.50;4.10;;;;;;;;;;5012451;28;20347;-82
2023/12/20 06:43:16;;;;;;;23.42;3.20;;;;;;;;;;5013397;28;20391;-82
2023/12/20 06:45:41;;;;;;;31.30;3.77;;;;;;;;;;5013219;28;20465;-82
2023/12/20 06:48:07;;;;;;;30.73;4.03;;;;;;;;;;5013259;28;20260;-82
2023/12/20 06:50:32;;;;;;;24.00;3.45;;;;;;;;;;5011741;28;20500;-83
2023/12/20 06:52:57;;;;;;;17.48;3.30;;;;;;;;;;5012876;28;20022;-84
2023/12/20 06:55:22;;;;;;;28.98;3.80;;;;;;;;;;5013323;28;20029;-81
2023/12/20 06:57:48;;;;;;;39.70;5.10;;;;;;;;;;5013110;28;20084;-81
2023/12/20 07:00:13;;;;;;;29.55;4.13;;;;;;;;;;5013139;28;20252;-85
2023/12/20 07:02:38;;;;;;;16.30;3.30;;;;;;;;;;5012989;28;20472;-83
2023/12/20 07:05:04;;;;;;;29.40;4.38;;;;;;;;;;5012973;28;20109;-81
2023/12/20 07:07:29;;;;;;;17.33;3.28;;;;;;;;;;5012874;28;20018;-81
2023/12/20 07:09:54;;;;;;;28.85;3.53;;;;;;;;;;5013397;28;20085;-83
2023/12/20 07:12:20;;;;;;;29.65;4.10;;;;;;;;;;5012246;28;20382;-84
2023/12/20 07:14:45;;;;;;;26.67;4.05;;;;;;;;;;5012655;28;20109;-76
2023/12/20 07:17:13;;;;;;;27.13;4.85;;;;;;;;;;5012376;28;20093;-79
2023/12/20 07:19:38;;;;;;;17.08;3.08;;;;;;;;;;5012545;28;20026;-81
2023/12/20 07:22:04;;;;;;;26.20;3.58;;;;;;;;;;5012640;28;20494;-80
2023/12/20 07:24:29;;;;;;;37.13;3.55;;;;;;;;;;5011072;28;20026;-80
2023/12/20 07:26:54;;;;;;;24.37;4.03;;;;;;;;;;5012338;28;20351;-84
2023/12/20 07:29:20;;;;;;;15.80;2.80;;;;;;;;;;5012403;28;20725;-78
2023/12/20 07:31:45;;;;;;;24.08;3.70;;;;;;;;;;5011252;28;20145;-77
2023/12/20 07:34:10;;;;;;;29.73;5.05;;;;;;;;;;5012653;28;20099;-80
2023/12/20 07:36:35;;;;;;;24.65;3.67;;;;;;;;;;5012548;28;20057;-77
2023/12/20 07:39:01;;;;;;;24.55;4.03;;;;;;;;;;5012851;28;20104;-80
2023/12/20 07:41:26;;;;;;;25.15;4.38;;;;;;;;;;5012556;28;20484;-76
2023/12/20 07:43:52;;;;;;;17.67;3.72;;;;;;;;;;5011207;28;20037;-78
2023/12/20 07:46:18;;;;;;;25.05;3.50;;;;;;;;;;5012170;28;20354;-78
2023/12/20 07:48:44;;;;;;;35.58;3.70;;;;;;;;;;5012546;28;20072;-76
2023/12/20 07:51:09;;;;;;;26.52;3.85;;;;;;;;;;5012511;28;20029;-79
2023/12/20 07:53:35;;;;;;;23.30;3.70;;;;;;;;;;5011536;28;20115;-76
2023/12/20 07:56:00;;;;;;;23.05;3.65;;;;;;;;;;5012315;28;20053;-85
2023/12/20 07:58:25;;;;;;;23.13;3.58;;;;;;;;;;5012013;28;20041;-77
2023/12/20 08:00:51;;;;;;;21.83;3.90;;;;;;;;;;5011981;28;20045;-76
2023/12/20 08:03:16;;;;;;;23.20;3.70;;;;;;;;;;5011867;28;20101;-77
2023/12/20 08:05:41;;;;;;;26.80;3.60;;;;;;;;;;5011691;28;20125;-76
2023/12/20 08:08:06;;;;;;;27.42;4.28;;;;;;;;;;5011181;28;20025;-81
2023/12/20 08:10:32;;;;;;;24.90;4.47;;;;;;;;;;4994573;28;20022;-78
2023/12/20 08:12:57;;;;;;;30.35;3.83;;;;;;;;;;5011478;28;20260;-77
2023/12/20 08:15:23;;;;;;;16.50;2.75;;;;;;;;;;5011953;28;20018;-77
2023/12/20 08:17:50;;;;;;;24.92;4.57;;;;;;;;;;5011654;28;20029;-82
2023/12/20 08:20:15;;;;;;;19.83;3.50;;;;;;;;;;5011792;28;20447;-80
2023/12/20 08:22:41;;;;;;;18.92;3.25;;;;;;;;;;5011362;28;20124;-79
2023/12/20 08:25:06;;;;;;;20.80;3.55;;;;;;;;;;5014832;28;20096;-81
2023/12/20 08:27:31;;;;;;;26.42;3.78;;;;;;;;;;5015255;28;20052;-79
2023/12/20 08:29:57;;;;;;;15.88;3.20;;;;;;;;;;5014832;28;20022;-78
2023/12/20 08:32:24;;;;;;;19.60;3.28;;;;;;;;;;5014749;28;20032;-77
2023/12/20 08:34:50;;;;;;;26.50;3.38;;;;;;;;;;5015318;28;20018;-78
2023/12/20 08:37:15;;;;;;;14.88;2.78;;;;;;;;;;5015857;28;20079;-78
2023/12/20 08:39:40;;;;;;;21.13;4.45;;;;;;;;;;5015290;28;20032;-82
2023/12/20 08:42:06;;;;;;;20.15;3.47;;;;;;;;;;5015000;28;20129;-76
2023/12/20 08:44:31;;;;;;;32.17;2.90;;;;;;;;;;5015107;28;20010;-78
2023/12/20 08:46:57;;;;;;;25.33;3.55;;;;;;;;;;5018354;28;20018;-75
2023/12/20 08:49:22;;;;;;;22.67;3.85;;;;;;;;;;5017395;28;20036;-81
2023/12/20 08:51:47;;;;;;;22.77;3.57;;;;;;;;;;5015087;28;20025;-80
2023/12/20 08:54:13;;;;;;;18.58;3.08;;;;;;;;;;5015057;28;20592;-79
2023/12/20 08:56:38;;;;;;;19.25;3.42;;;;;;;;;;5014905;28;20058;-78
2023/12/20 08:59:05;;;;;;;15.07;2.97;;;;;;;;;;5014450;28;20072;-79
2023/12/20 09:01:31;;;;;;;20.02;3.30;;;;;;;;;;5013274;28;20113;-77
2023/12/20 09:03:56;;;;;;;20.13;2.88;;;;;;;;;;5014744;28;20061;-77
2023/12/20 09:06:21;;;;;;;23.10;3.37;;;;;;;;;;5014476;28;20347;-79
2023/12/20 09:08:46;;;;;;;22.48;3.85;;;;;;;;;;5014863;28;20314;-76
2023/12/20 09:11:12;;;;;;;21.88;3.78;;;;;;;;;;5014392;28;20482;-78
2023/12/20 09:13:37;;;;;;;22.63;3.05;;;;;;;;;;5014458;28;20017;-79
2023/12/20 09:16:03;;;;;;;20.15;3.92;;;;;;;;;;5013100;28;20010;-77
2023/12/20 09:18:28;;;;;;;16.98;2.95;;;;;;;;;;5014460;28;20473;-79
2023/12/20 09:20:53;;;;;;;15.67;2.93;;;;;;;;;;5014433;28;20075;-78
2023/12/20 09:23:18;;;;;;;19.23;2.85;;;;;;;;;;5014140;28;20263;-79
2023/12/20 09:25:44;;;;;;;21.47;3.27;;;;;;;;;;5014164;28;20045;-78
2023/12/20 09:28:09;;;;;;;27.92;3.88;;;;;;;;;;5014371;28;20287;-79
2023/12/20 09:30:37;;;;;;;21.70;3.20;;;;;;;;;;5014301;28;20041;-80
2023/12/20 09:33:03;;;;;;;25.20;3.28;;;;;;;;;;5014834;28;20216;-83
2023/12/20 09:35:28;;;;;;;22.88;2.80;;;;;;;;;;5013583;28;20423;-77
2023/12/20 09:37:53;;;;;;;22.02;3.80;;;;;;;;;;5013518;28;20026;-80
2023/12/20 09:40:19;;;;;;;22.70;2.95;;;;;;;;;;5013957;28;20024;-77
2023/12/20 09:42:57;;;;;;;22.75;3.78;;;;;;;;;;5013957;28;20084;-79
2023/12/20 09:45:22;;;;;;;17.02;3.63;;;;;;;;;;5014207;28;20027;-81
2023/12/20 09:47:52;;;;;;;15.00;3.00;;;;;;;;;;5013556;28;20030;-79
2023/12/20 09:50:18;;;;;;;21.50;3.50;;;;;;;;;;5013990;28;20104;-78
2023/12/20 09:52:43;;;;;;;16.08;3.70;;;;;;;;;;5013675;28;20053;-80
2023/12/20 09:55:09;;;;;;;29.95;4.03;;;;;;;;;;5013415;28;20041;-78
2023/12/20 09:57:35;;;;;;;19.98;2.83;;;;;;;;;;5013840;28;20037;-77
2023/12/20 10:00:00;;;;;;;20.25;3.63;;;;;;;;;;5014154;28;20363;-78
2023/12/20 10:02:29;;;;;;;26.98;3.35;;;;;;;;;;5013773;28;20065;-81
2023/12/20 10:04:55;;;;;;;19.58;2.60;;;;;;;;;;5014095;28;20412;-79
2023/12/20 10:07:22;;;;;;;17.42;3.53;;;;;;;;;;5014203;28;20029;-82
2023/12/20 10:09:47;;;;;;;22.00;3.50;;;;;;;;;;5014160;28;20029;-80
2023/12/20 10:12:12;;;;;;;23.60;3.53;;;;;;;;;;5012430;28;20492;-77
2023/12/20 10:14:38;;;;;;;21.10;2.72;;;;;;;;;;5013924;28;20099;-80
2023/12/20 10:17:04;;;;;;;18.65;2.80;;;;;;;;;;5012626;28;20026;-81
2023/12/20 10:19:29;;;;;;;21.33;3.55;;;;;;;;;;5014460;28;20040;-79
2023/12/20 10:21:55;;;;;;;22.52;3.03;;;;;;;;;;5013884;28;20071;-81
2023/12/20 10:24:20;;;;;;;20.73;3.27;;;;;;;;;;5013633;28;20099;-78
2023/12/20 10:26:45;;;;;;;9.65;2.30;;;;;;;;;;5013577;28;20764;-82
2023/12/20 10:29:11;;;;;;;15.38;2.97;;;;;;;;;;5013503;28;20129;-79
2023/12/20 10:31:38;;;;;;;27.35;2.78;;;;;;;;;;5013219;28;20022;-78
2023/12/20 10:34:03;;;;;;;17.17;3.42;;;;;;;;;;5013640;28;20014;-78
2023/12/20 10:36:30;;;;;;;21.45;4.03;;;;;;;;;;5012181;28;20084;-78
2023/12/20 10:38:57;;;;;;;21.05;3.08;;;;;;;;;;5012104;28;20084;-80
2023/12/20 10:41:27;;;;;;;21.30;3.28;;;;;;;;;;5013985;28;20026;-78
2023/12/20 10:43:53;;;;;;;22.42;3.72;;;;;;;;;;5013402;28;20029;-78
2023/12/20 10:46:19;;;;;;;28.13;4.15;;;;;;;;;;5013419;28;20045;-80
2023/12/20 10:48:45;;;;;;;19.05;3.30;;;;;;;;;;5013137;28;20132;-78
2023/12/20 10:51:11;;;;;;;22.17;3.08;;;;;;;;;;5013419;28;20426;-80
2023/12/20 10:53:36;;;;;;;18.95;3.50;;;;;;;;;;5014234;28;20018;-76
2023/12/20 10:56:02;;;;;;;23.38;3.28;;;;;;;;;;5014145;28;20378;-76
2023/12/20 10:58:29;;;;;;;23.10;2.92;;;;;;;;;;5015089;28;20037;-78
2023/12/20 11:00:59;;;;;;;20.40;3.30;;;;;;;;;;5015052;28;20084;-78
2023/12/20 11:03:26;;;;;;;20.48;3.30;;;;;;;;;;5013949;28;20354;-78
2023/12/20 11:06:05;;;;;;;15.73;2.53;;;;;;;;;;5014288;28;20021;-79
2023/12/20 11:08:36;;;;;;;23.08;3.38;;;;;;;;;;5015207;28;20026;-76
2023/12/20 11:11:06;;;;;;;22.10;4.15;;;;;;;;;;5014982;28;20022;-77
2023/12/20 11:13:37;;;;;;;18.42;3.00;;;;;;;;;;5017891;28;20022;-81
2023/12/20 11:16:03;;;;;;;17.63;3.07;;;;;;;;;;5015977;28;20129;-78
2023/12/20 11:18:31;;;;;;;21.38;3.42;;;;;;;;;;5013798;28;20032;-79
2023/12/20 11:21:05;;;;;;;18.35;2.90;;;;;;;;;;5013346;28;20020;-78
2023/12/20 11:23:33;;;;;;;19.48;3.03;;;;;;;;;;5013134;28;20490;-80
2023/12/20 11:25:59;;;;;;;29.35;4.38;;;;;;;;;;5013273;28;20030;-80
2023/12/20 11:28:25;;;;;;;22.33;3.47;;;;;;;;;;5013325;28;20367;-80
2023/12/20 11:30:51;;;;;;;22.48;2.67;;;;;;;;;;5013299;28;20018;-77
2023/12/20 11:33:17;;;;;;;22.48;3.15;;;;;;;;;;5013356;28;20101;-77
2023/12/20 11:35:43;;;;;;;13.23;2.20;;;;;;;;;;5013711;28;20475;-77
2023/12/20 11:38:09;;;;;;;16.17;3.35;;;;;;;;;;5013127;28;20088;-80
2023/12/20 11:40:34;;;;;;;20.85;2.92;;;;;;;;;;5013152;28;20458;-77
2023/12/20 11:43:00;;;;;;;26.42;3.25;;;;;;;;;;5012895;28;20053;-80
2023/12/20 11:45:25;;;;;;;23.67;3.00;;;;;;;;;;5013889;28;20406;-80
2023/12/20 11:47:51;;;;;;;13.38;2.70;;;;;;;;;;5011552;28;20505;-78
2023/12/20 11:50:17;;;;;;;22.20;3.83;;;;;;;;;;5012484;28;20028;-79
2023/12/20 11:52:42;;;;;;;19.55;4.00;;;;;;;;;;5012724;28;20072;-78
2023/12/20 11:55:07;;;;;;;20.03;3.47;;;;;;;;;;5011459;28;20457;-81
2023/12/20 11:57:33;;;;;;;22.15;3.65;;;;;;;;;;5012243;28;20280;-79
2023/12/20 11:59:59;;;;;;;12.75;2.75;;;;;;;;;;5015727;28;20029;-82
2023/12/20 12:02:24;;;;;;;19.10;2.88;;;;;;;;;;5015435;28;20430;-81
2023/12/20 12:04:50;;;;;;;12.80;2.50;;;;;;;;;;5017179;28;20033;-78
2023/12/20 12:07:16;;;;;;;14.13;2.30;;;;;;;;;;5016795;28;20081;-83
2023/12/20 12:09:41;;;;;;;18.73;3.08;;;;;;;;;;5016427;28;20022;-84
2023/12/20 12:12:07;;;;;;;14.77;2.57;;;;;;;;;;5016284;28;20468;-78
2023/12/20 12:14:32;;;;;;;18.70;3.72;;;;;;;;;;5016386;28;20614;-78
2023/12/20 12:16:57;;;;;;;16.80;2.65;;;;;;;;;;5016910;28;20022;-77
2023/12/20 12:19:23;;;;;;;20.58;3.28;;;;;;;;;;5016184;28;20323;-76
2023/12/20 12:22:03;;;;;;;16.63;2.95;;;;;;;;;;5016078;28;20555;-80
2023/12/20 12:24:28;;;;;;;22.60;3.60;;;;;;;;;;5016189;28;20049;-77
2023/12/20 12:26:57;;;;;;;19.80;3.23;;;;;;;;;;5015813;28;20068;-77
2023/12/20 12:29:22;;;;;;;16.05;2.72;;;;;;;;;;5016279;28;20386;-78
2023/12/20 12:31:48;;;;;;;18.80;3.17;;;;;;;;;;5015443;28;20030;-77
2023/12/20 12:34:13;;;;;;;15.23;2.58;;;;;;;;;;5015863;28;20022;-77
2023/12/20 12:36:39;;;;;;;19.00;2.90;;;;;;;;;;5015518;28;20525;-76
2023/12/20 12:39:05;;;;;;;18.00;3.05;;;;;;;;;;4998356;28;20362;-79
2023/12/20 12:41:30;;;;;;;18.30;3.10;;;;;;;;;;5015311;28;20010;-76
2023/12/20 12:43:55;;;;;;;14.32;2.50;;;;;;;;;;5016143;28;20046;-75
2023/12/20 12:46:21;;;;;;;11.68;2.85;;;;;;;;;;5014935;28;20046;-75
2023/12/20 12:48:46;;;;;;;23.85;2.88;;;;;;;;;;5013955;28;20033;-81
2023/12/20 12:51:13;;;;;;;23.58;2.95;;;;;;;;;;5015130;28;20101;-81
2023/12/20 12:53:38;;;;;;;18.77;3.90;;;;;;;;;;5015403;28;20486;-75
2023/12/20 12:56:04;;;;;;;16.48;2.85;;;;;;;;;;5015727;28;20022;-80
2023/12/20 12:58:29;;;;;;;21.23;3.15;;;;;;;;;;5017651;28;20026;-77
2023/12/20 13:00:55;;;;;;;19.00;2.53;;;;;;;;;;5022841;28;20014;-79
2023/12/20 13:03:20;;;;;;;13.60;2.40;;;;;;;;;;5023747;28;20036;-75
2023/12/20 13:05:47;;;;;;;18.67;3.15;;;;;;;;;;5021632;28;20463;-76
2023/12/20 13:08:12;;;;;;;12.50;2.17;;;;;;;;;;5013571;28;20478;-79
2023/12/20 13:10:37;;;;;;;19.13;2.83;;;;;;;;;;5013820;28;20018;-76
2023/12/20 13:13:04;;;;;;;11.55;2.25;;;;;;;;;;5015091;28;20386;-78
2023/12/20 13:15:30;;;;;;;17.73;2.92;;;;;;;;;;5015044;28;20072;-79
2023/12/20 13:17:55;;;;;;;22.27;2.88;;;;;;;;;;5014724;28;20033;-77
2023/12/20 13:20:21;;;;;;;18.75;2.50;;;;;;;;;;5014455;28;20021;-77
2023/12/20 13:22:47;;;;;;;17.52;2.78;;;;;;;;;;5013445;28;20026;-76
2023/12/20 13:25:12;;;;;;;19.83;3.13;;;;;;;;;;5014768;28;20101;-82
2023/12/20 13:27:38;;;;;;;18.02;2.92;;;;;;;;;;5014660;28;20057;-77
2023/12/20 13:30:03;;;;;;;20.52;2.80;;;;;;;;;;5014624;28;20026;-76
2023/12/20 13:32:29;;;;;;;16.65;2.95;;;;;;;;;;5014993;28;20026;-79
2023/12/20 13:34:54;;;;;;;19.83;3.15;;;;;;;;;;5014463;28;20096;-77
2023/12/20 13:37:19;;;;;;;18.02;2.53;;;;;;;;;;5012994;28;20025;-82
2023/12/20 13:39:44;;;;;;;21.95;2.88;;;;;;;;;;4997476;28;20418;-77
2023/12/20 13:42:10;;;;;;;15.65;2.88;;;;;;;;;;5014613;28;20053;-77
2023/12/20 13:44:35;;;;;;;17.47;3.60;;;;;;;;;;5014868;28;20097;-78
2023/12/20 13:47:01;;;;;;;14.80;2.47;;;;;;;;;;5014327;28;20271;-76
2023/12/20 13:49:27;;;;;;;32.22;2.97;;;;;;;;;;5013965;28;20680;-80
2023/12/20 13:51:54;;;;;;;23.05;3.80;;;;;;;;;;5013161;28;20108;-79
2023/12/20 13:54:22;;;;;;;14.98;3.13;;;;;;;;;;5014845;28;20065;-80
2023/12/20 13:56:47;;;;;;;21.42;3.45;;;;;;;;;;5014127;28;20112;-77
2023/12/20 13:59:13;;;;;;;23.42;2.72;;;;;;;;;;5014047;28;20153;-77
2023/12/20 14:01:38;;;;;;;14.48;2.80;;;;;;;;;;5013981;28;20104;-77
2023/12/20 14:04:04;;;;;;;21.50;3.25;;;;;;;;;;5013924;28;20033;-82
2023/12/20 14:06:29;;;;;;;19.20;3.38;;;;;;;;;;5014521;28;20033;-79
2023/12/20 14:08:54;;;;;;;20.20;3.47;;;;;;;;;;5013942;28;20025;-80
2023/12/20 14:11:20;;;;;;;19.85;3.03;;;;;;;;;;5013881;28;20056;-76
2023/12/20 14:13:45;;;;;;;20.58;3.28;;;;;;;;;;5014154;28;20423;-75
2023/12/20 14:16:10;;;;;;;20.83;3.33;;;;;;;;;;5013929;28;20399;-79
2023/12/20 14:18:36;;;;;;;20.77;3.70;;;;;;;;;;5013501;28;20363;-76
2023/12/20 14:21:01;;;;;;;17.38;3.08;;;;;;;;;;5013460;28;20121;-76